createdAt,value
2022-09-30T00:01:11.428Z,11.23
2022-09-30T00:03:38.154Z,12.50
2022-09-30T00:06:08.687Z,14.25
2022-09-30T00:08:36.967Z,10.70
2022-09-30T00:11:06.990Z,12.65
2022-09-30T00:13:36.380Z,11.27
2022-09-30T00:16:04.234Z,13.48
2022-09-30T00:18:32.219Z,12.68
2022-09-30T00:21:00.022Z,11.85
2022-09-30T00:23:26.772Z,13.82
2022-09-30T00:25:59.030Z,11.95
2022-09-30T00:28:27.030Z,12.57
2022-09-30T00:30:54.948Z,11.18
2022-09-30T00:33:21.750Z,11.60
2022-09-30T00:35:48.491Z,10.60
2022-09-30T00:38:15.252Z,11.55
2022-09-30T00:40:43.035Z,8.70
2022-09-30T00:43:15.181Z,12.07
2022-09-30T00:45:53.564Z,14.43
2022-09-30T00:48:30.798Z,12.85
2022-09-30T00:50:58.184Z,15.55
2022-09-30T00:53:30.523Z,12.95
2022-09-30T00:56:00.374Z,12.60
2022-09-30T00:58:29.897Z,14.23
2022-09-30T01:01:00.102Z,12.95
2022-09-30T01:03:29.661Z,15.75
2022-09-30T01:05:56.446Z,11.82
2022-09-30T01:08:24.854Z,12.55
2022-09-30T01:10:51.663Z,12.25
2022-09-30T01:13:20.348Z,10.82
2022-09-30T01:16:28.483Z,12.05
2022-09-30T01:19:20.129Z,13.02
2022-09-30T01:22:05.467Z,10.32
2022-09-30T01:24:37.999Z,8.18
2022-09-30T01:27:15.845Z,8.52
2022-09-30T01:30:09.152Z,9.90
2022-09-30T01:32:53.470Z,9.90
2022-09-30T01:35:40.175Z,10.93
2022-09-30T01:38:20.035Z,10.00
2022-09-30T01:41:04.533Z,12.15
2022-09-30T01:43:54.684Z,10.98
2022-09-30T01:46:52.381Z,11.10
2022-09-30T01:49:46.176Z,10.00
2022-09-30T01:52:16.231Z,10.80
2022-09-30T01:55:27.413Z,7.88
2022-09-30T01:58:04.488Z,10.40
2022-09-30T02:00:34.913Z,8.10
2022-09-30T02:03:09.676Z,10.38
2022-09-30T02:05:53.419Z,10.93
2022-09-30T02:08:32.233Z,10.15
2022-09-30T02:11:06.658Z,11.32
2022-09-30T02:13:44.954Z,9.10
2022-09-30T02:16:15.577Z,11.75
2022-09-30T02:18:46.638Z,9.02
2022-09-30T02:21:17.366Z,10.68
2022-09-30T02:23:47.576Z,9.73
2022-09-30T02:26:25.087Z,10.05
2022-09-30T02:28:56.794Z,9.95
2022-09-30T02:31:25.282Z,11.30
2022-09-30T02:34:06.534Z,10.40
2022-09-30T02:36:46.100Z,9.93
2022-09-30T02:39:26.602Z,10.45
2022-09-30T02:42:00.053Z,10.32
2022-09-30T02:44:26.953Z,8.88
2022-09-30T02:47:04.428Z,8.95
2022-09-30T02:49:52.018Z,11.38
2022-09-30T02:52:50.889Z,9.30
2022-09-30T02:55:34.338Z,9.70
2022-09-30T02:58:21.383Z,8.10
2022-09-30T03:00:51.421Z,9.35
2022-09-30T03:03:20.017Z,9.38
2022-09-30T03:05:48.576Z,10.25
2022-09-30T03:08:15.712Z,9.98
2022-09-30T03:10:43.878Z,10.73
2022-09-30T03:13:49.235Z,11.50
2022-09-30T03:16:21.850Z,10.40
2022-09-30T03:19:08.766Z,8.73
2022-09-30T03:22:19.205Z,10.52
2022-09-30T03:25:19.994Z,9.27
2022-09-30T03:28:14.886Z,10.10
2022-09-30T03:30:55.058Z,10.90
2022-09-30T03:33:47.397Z,9.82
2022-09-30T03:36:23.913Z,8.05
2022-09-30T03:38:57.725Z,9.57
2022-09-30T03:41:43.113Z,10.05
2022-09-30T03:44:25.015Z,10.85
2022-09-30T03:46:56.316Z,10.30
2022-09-30T03:49:27.562Z,10.93
2022-09-30T03:51:58.714Z,12.88
2022-09-30T03:54:25.817Z,12.70
2022-09-30T03:56:52.516Z,9.13
2022-09-30T03:59:25.553Z,8.50
2022-09-30T04:01:52.731Z,10.90
2022-09-30T04:04:19.864Z,9.40
2022-09-30T04:06:47.083Z,9.10
2022-09-30T04:09:14.183Z,8.70
2022-09-30T04:11:41.102Z,10.98
2022-09-30T04:14:07.757Z,9.85
2022-09-30T04:16:34.945Z,10.50
2022-09-30T04:19:01.787Z,9.18
2022-09-30T04:21:28.952Z,10.95
2022-09-30T04:23:56.396Z,10.73
2022-09-30T04:26:23.091Z,9.02
2022-09-30T04:28:50.441Z,10.38
2022-09-30T04:31:19.414Z,9.73
2022-09-30T04:33:46.187Z,9.00
2022-09-30T04:36:12.888Z,13.25
2022-09-30T04:38:39.674Z,14.52
2022-09-30T04:41:07.044Z,9.73
2022-09-30T04:43:34.401Z,10.70
2022-09-30T04:46:01.814Z,11.18
2022-09-30T04:48:31.284Z,12.77
2022-09-30T04:50:59.717Z,10.95
2022-09-30T04:53:26.711Z,12.43
2022-09-30T04:56:01.589Z,9.95
2022-09-30T04:58:33.420Z,10.68
2022-09-30T05:01:09.510Z,11.15
2022-09-30T05:03:36.809Z,13.00
2022-09-30T05:06:04.737Z,10.82
2022-09-30T05:08:33.718Z,12.57
2022-09-30T05:11:03.042Z,11.18
2022-09-30T05:13:35.913Z,12.15
2022-09-30T05:16:03.620Z,11.98
2022-09-30T05:18:31.386Z,10.85
2022-09-30T05:20:58.420Z,12.23
2022-09-30T05:23:26.750Z,16.90
2022-09-30T05:25:54.020Z,15.55
2022-09-30T05:28:20.850Z,12.07
2022-09-30T05:30:48.041Z,11.43
2022-09-30T05:33:14.773Z,11.55
2022-09-30T05:35:42.996Z,11.27
2022-09-30T05:38:10.683Z,12.07
2022-09-30T05:40:40.881Z,13.98
2022-09-30T05:43:08.096Z,15.68
2022-09-30T05:45:35.061Z,12.98
2022-09-30T05:48:02.003Z,18.52
2022-09-30T05:50:29.053Z,12.25
2022-09-30T05:52:57.440Z,15.32
2022-09-30T05:55:24.674Z,13.13
2022-09-30T05:57:52.242Z,15.15
2022-09-30T06:00:19.703Z,15.25
2022-09-30T06:02:46.529Z,14.60
2022-09-30T06:05:13.389Z,16.60
2022-09-30T06:07:40.130Z,12.60
2022-09-30T06:10:11.064Z,15.82
2022-09-30T06:12:38.691Z,16.10
2022-09-30T06:15:06.582Z,12.82
2022-09-30T06:17:33.572Z,15.43
2022-09-30T06:20:01.021Z,18.75
2022-09-30T06:22:27.750Z,17.90
2022-09-30T06:24:57.743Z,16.48
2022-09-30T06:31:32.315Z,21.08
2022-09-30T06:34:29.701Z,16.77
2022-09-30T06:49:16.746Z,18.85
2022-09-30T06:52:36.782Z,21.20
2022-09-30T06:59:56.384Z,17.80
2022-09-30T07:02:27.037Z,17.25
2022-09-30T07:05:44.677Z,16.88
2022-09-30T07:08:11.942Z,16.95
2022-09-30T07:10:43.898Z,23.95
2022-09-30T07:13:50.341Z,20.13
2022-09-30T07:20:14.797Z,14.25
2022-09-30T07:22:42.221Z,16.52
2022-09-30T07:25:11.260Z,15.13
2022-09-30T07:27:38.039Z,12.43
2022-09-30T07:30:11.534Z,12.88
2022-09-30T07:32:41.170Z,12.52
2022-09-30T07:35:08.140Z,12.38
2022-09-30T07:37:36.259Z,11.60
2022-09-30T07:40:10.752Z,11.15
2022-09-30T07:42:46.053Z,11.00
2022-09-30T07:45:17.054Z,9.25
2022-09-30T07:47:44.195Z,8.20
2022-09-30T07:50:12.417Z,7.47
2022-09-30T07:52:42.317Z,6.72
2022-09-30T07:55:09.444Z,7.93
2022-09-30T07:57:36.165Z,6.10
2022-09-30T08:00:23.133Z,7.90
2022-09-30T08:02:51.177Z,6.45
2022-09-30T08:05:18.093Z,6.80
2022-09-30T08:07:44.916Z,5.80
2022-09-30T08:10:11.794Z,7.28
2022-09-30T08:12:38.632Z,7.68
2022-09-30T08:15:06.560Z,6.03
2022-09-30T08:17:33.346Z,5.28
2022-09-30T08:20:00.183Z,4.13
2022-09-30T08:22:28.142Z,3.05
2022-09-30T08:24:54.837Z,3.65
2022-09-30T08:27:27.300Z,3.90
2022-09-30T08:34:03.336Z,3.70
2022-09-30T08:36:32.936Z,4.63
2022-09-30T08:39:07.507Z,4.13
2022-09-30T08:42:13.907Z,2.90
2022-09-30T08:45:17.707Z,2.25
2022-09-30T08:48:13.769Z,1.30
2022-09-30T08:50:49.968Z,2.60
2022-09-30T08:55:51.578Z,2.00
2022-09-30T08:58:29.106Z,3.17
2022-09-30T09:01:04.223Z,2.13
2022-09-30T09:03:34.185Z,2.17
2022-09-30T09:06:20.377Z,1.80
2022-09-30T09:08:55.981Z,3.05
2022-09-30T09:11:54.326Z,3.10
2022-09-30T09:14:27.169Z,2.55
2022-09-30T09:17:16.419Z,1.98
2022-09-30T09:19:54.083Z,3.53
2022-09-30T09:22:24.611Z,2.60
2022-09-30T09:24:53.614Z,3.10
2022-09-30T09:27:49.695Z,3.55
2022-09-30T09:30:20.842Z,2.50
2022-09-30T09:32:57.139Z,2.95
2022-09-30T09:35:47.914Z,3.03
2022-09-30T09:38:35.731Z,4.32
2022-09-30T09:41:26.910Z,2.50
2022-09-30T09:44:08.351Z,4.20
2022-09-30T09:46:49.067Z,3.30
2022-09-30T09:49:24.153Z,4.28
2022-09-30T09:52:14.919Z,3.33
2022-09-30T09:54:47.179Z,1.63
2022-09-30T09:57:18.961Z,1.20
2022-09-30T10:00:55.248Z,2.35
2022-09-30T10:07:51.656Z,1.67
2022-09-30T10:11:06.694Z,2.30
2022-09-30T10:14:20.230Z,1.08
2022-09-30T10:17:23.310Z,1.33
2022-09-30T10:26:41.047Z,1.58
2022-09-30T10:29:39.334Z,1.40
2022-09-30T10:32:38.691Z,1.80
2022-09-30T10:35:32.848Z,1.65
2022-09-30T10:38:09.735Z,1.50
2022-09-30T10:40:46.190Z,2.60
2022-09-30T10:43:49.968Z,2.08
2022-09-30T10:47:05.485Z,1.27
2022-09-30T10:50:41.708Z,1.38
2022-09-30T10:53:30.429Z,1.58
2022-09-30T10:57:13.268Z,2.30
2022-09-30T11:00:39.368Z,6.45
2022-09-30T15:42:08.201Z,4.20
2022-09-30T15:44:44.506Z,2.65
2022-09-30T15:47:20.578Z,4.78
2022-09-30T15:53:48.919Z,3.60
2022-09-30T15:56:18.589Z,3.65
2022-09-30T15:58:58.602Z,4.20
2022-09-30T16:01:40.502Z,2.92
2022-09-30T16:04:30.414Z,4.00
2022-09-30T16:07:10.136Z,4.45
2022-09-30T16:09:42.145Z,5.05
2022-09-30T16:12:17.284Z,5.10
2022-09-30T16:14:51.322Z,4.75
2022-09-30T16:21:35.111Z,3.42
2022-09-30T16:32:40.387Z,3.80
2022-09-30T16:35:47.776Z,5.68
2022-09-30T16:38:25.165Z,4.57
2022-09-30T16:41:24.548Z,4.80
2022-09-30T16:52:49.102Z,4.53
2022-09-30T16:58:57.822Z,4.82
2022-09-30T17:05:17.227Z,3.85
2022-09-30T17:17:30.436Z,4.63
2022-09-30T17:19:57.131Z,4.50
2022-09-30T17:22:23.889Z,4.93
2022-09-30T17:24:50.839Z,4.50
2022-09-30T17:27:17.566Z,4.03
2022-09-30T17:30:03.274Z,4.70
2022-09-30T17:32:30.304Z,4.25
2022-09-30T17:34:57.202Z,4.57
2022-09-30T17:37:29.293Z,5.55
2022-09-30T17:39:56.156Z,4.65
2022-09-30T17:42:41.697Z,6.05
2022-09-30T17:45:09.330Z,7.95
2022-09-30T17:47:41.972Z,6.28
2022-09-30T17:50:10.081Z,6.72
2022-09-30T17:52:37.116Z,6.70
2022-09-30T17:55:07.720Z,7.75
2022-09-30T17:58:03.480Z,7.90
2022-09-30T18:00:35.205Z,7.07
2022-09-30T18:03:35.034Z,6.97
2022-09-30T18:34:56.645Z,8.80
2022-09-30T18:38:13.732Z,8.35
2022-09-30T18:41:21.913Z,9.50
2022-09-30T18:44:13.212Z,9.05
2022-09-30T18:46:56.041Z,9.77
2022-09-30T18:49:40.145Z,11.70
2022-09-30T18:52:09.907Z,10.25
2022-09-30T18:54:36.931Z,11.00
2022-09-30T18:57:03.862Z,10.25
2022-09-30T18:59:30.596Z,9.32
2022-09-30T19:01:59.702Z,10.18
2022-09-30T19:04:29.809Z,15.88
2022-09-30T19:07:00.026Z,20.70
2022-09-30T19:09:29.627Z,13.68
2022-09-30T19:12:00.256Z,11.57
2022-09-30T19:14:30.707Z,10.35
2022-09-30T19:16:57.580Z,12.10
2022-09-30T19:19:26.992Z,12.07
2022-09-30T19:21:55.273Z,12.45
2022-09-30T19:24:26.664Z,12.25
2022-09-30T19:26:54.143Z,11.90
2022-09-30T19:29:20.911Z,13.02
2022-09-30T19:31:47.652Z,12.20
2022-09-30T19:34:26.362Z,11.50
2022-09-30T19:36:56.370Z,10.07
2022-09-30T19:39:24.209Z,11.35
2022-09-30T19:41:53.931Z,11.27
2022-09-30T19:44:24.658Z,11.02
2022-09-30T19:46:52.245Z,9.90
2022-09-30T19:49:49.253Z,8.75
2022-09-30T19:52:27.508Z,10.52
2022-09-30T19:55:09.240Z,9.30
2022-09-30T19:57:42.753Z,10.90
2022-09-30T20:00:12.918Z,9.95
2022-09-30T20:02:44.368Z,10.32
2022-09-30T20:05:17.623Z,10.68
2022-09-30T20:07:55.707Z,11.20
2022-09-30T20:10:28.689Z,11.25
2022-09-30T20:12:55.798Z,10.80
2022-09-30T20:15:45.914Z,9.82
2022-09-30T20:18:14.525Z,9.13
2022-09-30T20:20:45.408Z,9.23
2022-09-30T20:23:13.214Z,11.55
2022-09-30T20:25:41.452Z,11.65
2022-09-30T20:28:09.138Z,9.32
2022-09-30T20:30:39.841Z,10.35
2022-09-30T20:33:06.839Z,9.10
2022-09-30T20:35:36.808Z,10.50
2022-09-30T20:38:04.106Z,9.82
2022-09-30T20:40:30.938Z,9.90
2022-09-30T20:43:01.462Z,9.48
2022-09-30T20:45:28.533Z,9.73
2022-09-30T20:47:56.568Z,9.43
2022-09-30T20:50:54.033Z,11.80
2022-09-30T20:53:52.658Z,11.20
2022-09-30T20:57:08.662Z,9.07
2022-09-30T20:59:35.840Z,8.82
2022-09-30T21:02:02.805Z,9.52
2022-09-30T21:04:29.650Z,9.15
2022-09-30T21:06:56.485Z,10.27
2022-09-30T21:12:44.245Z,11.23
2022-09-30T21:15:12.176Z,11.25
2022-09-30T21:17:40.469Z,12.07
2022-09-30T21:20:07.810Z,11.88
2022-09-30T21:22:40.238Z,12.57
2022-09-30T21:25:14.383Z,9.60
2022-09-30T21:27:47.942Z,10.23
2022-09-30T21:30:16.727Z,9.88
2022-09-30T21:54:03.674Z,10.38
2022-09-30T21:56:30.692Z,13.00
2022-09-30T21:59:00.407Z,8.95
2022-09-30T22:01:27.278Z,12.27
2022-09-30T22:03:54.065Z,12.65
2022-09-30T22:06:21.008Z,14.27
2022-09-30T22:08:47.778Z,11.38
2022-09-30T22:11:24.848Z,11.95
2022-09-30T22:13:55.540Z,11.60
2022-09-30T22:16:29.662Z,13.45
2022-09-30T22:19:01.302Z,12.15
2022-09-30T22:21:31.852Z,11.00
2022-09-30T22:24:00.263Z,12.30
2022-09-30T22:26:28.215Z,11.20
2022-09-30T22:29:03.453Z,11.23
2022-09-30T22:31:32.613Z,13.32
2022-09-30T22:34:30.911Z,9.48
2022-09-30T22:37:16.170Z,11.00
2022-09-30T22:39:42.923Z,10.85
2022-09-30T22:42:09.645Z,11.25
2022-09-30T22:44:37.740Z,9.98
2022-09-30T22:47:05.160Z,11.77
2022-09-30T22:49:32.516Z,12.98
2022-09-30T22:51:59.845Z,10.80
2022-09-30T22:54:28.524Z,10.27
2022-09-30T22:56:56.091Z,9.77
2022-09-30T22:59:23.765Z,11.85
2022-09-30T23:01:50.689Z,12.88
2022-09-30T23:04:18.411Z,9.75
2022-09-30T23:06:48.739Z,11.65
2022-09-30T23:09:16.858Z,11.82
2022-09-30T23:11:44.083Z,10.02
2022-09-30T23:14:10.849Z,9.82
2022-09-30T23:16:39.224Z,11.88
2022-09-30T23:19:06.201Z,11.30
2022-09-30T23:21:33.707Z,10.90
2022-09-30T23:24:00.925Z,10.45
2022-09-30T23:26:29.243Z,11.25
2022-09-30T23:29:01.229Z,9.98
2022-09-30T23:31:28.413Z,10.82
2022-09-30T23:34:01.266Z,11.10
2022-09-30T23:36:30.982Z,10.88
2022-09-30T23:39:05.607Z,11.00
2022-09-30T23:41:34.074Z,8.82
2022-09-30T23:44:01.408Z,8.60
2022-09-30T23:46:28.196Z,11.02
2022-09-30T23:48:55.049Z,9.82
2022-09-30T23:51:21.959Z,8.27
2022-09-30T23:53:49.728Z,11.57
2022-09-30T23:56:18.267Z,9.38
2022-09-30T23:58:46.263Z,9.25
